Terminal Aerodrome Forecast
Issued by NWS

Home | Current Version | Previous Version | Text Only | Print | Product List | Glossary On
Versions: 1 2 3 4 5 6 7 8 9 10 11 12 13 14 15 16 17 18 19 20 21 22 23 24 25 26 27 28 29 30 31 32 33 34 35
000
FTUS45 KGJT 302335
TAFTEX
TAF
KTEX 302335Z 3100/3124 00000KT P6SM VCTS SCT060 BKN080CB BKN110
      TEMPO 3100/3102 VRB10G20KT -TSRA SCT060 OVC080CB
     FM310300 10004KT P6SM FEW080 SCT140
     FM310600 14004KT P6SM SKC
     FM311800 27005KT P6SM VCSH BKN080=

USA.gov is the U.S. government's official web portal to all federal, state and local government web resources and services.